sensor_id;sensor_type;location;lat;lon;timestamp;pressure;altitude;pressure_sealevel;temperature;humidity
12536;BME280;6334;48.696;2.114;2023-03-04T00:00:11;100867.63;;;3.17;68.74
12536;BME280;6334;48.696;2.114;2023-03-04T00:02:42;100864.30;;;3.05;69.33
12536;BME280;6334;48.696;2.114;2023-03-04T00:05:12;100862.52;;;3.24;68.97
12536;BME280;6334;48.696;2.114;2023-03-04T00:07:43;100857.91;;;3.36;68.13
12536;BME280;6334;48.696;2.114;2023-03-04T00:10:13;100869.52;;;3.22;69.12
12536;BME280;6334;48.696;2.114;2023-03-04T00:12:44;100871.61;;;3.18;69.30
12536;BME280;6334;48.696;2.114;2023-03-04T00:15:15;100866.88;;;2.88;70.08
12536;BME280;6334;48.696;2.114;2023-03-04T00:17:46;100858.31;;;3.11;68.90
12536;BME280;6334;48.696;2.114;2023-03-04T00:20:16;100872.56;;;3.09;69.73
12536;BME280;6334;48.696;2.114;2023-03-04T00:22:46;100872.04;;;3.28;69.33
12536;BME280;6334;48.696;2.114;2023-03-04T00:25:17;100867.95;;;3.30;68.70
12536;BME280;6334;48.696;2.114;2023-03-04T00:27:47;100870.19;;;3.19;69.26
12536;BME280;6334;48.696;2.114;2023-03-04T00:30:18;100876.03;;;3.28;68.92
12536;BME280;6334;48.696;2.114;2023-03-04T00:32:48;100865.90;;;3.01;69.26
12536;BME280;6334;48.696;2.114;2023-03-04T00:35:19;100878.52;;;3.31;68.65
12536;BME280;6334;48.696;2.114;2023-03-04T00:37:49;100877.85;;;3.04;69.86
12536;BME280;6334;48.696;2.114;2023-03-04T00:40:20;100878.58;;;3.33;68.41
12536;BME280;6334;48.696;2.114;2023-03-04T00:42:51;100885.54;;;3.00;69.61
12536;BME280;6334;48.696;2.114;2023-03-04T00:45:22;100884.02;;;3.13;69.54
12536;BME280;6334;48.696;2.114;2023-03-04T00:47:52;100885.59;;;3.17;69.32
12536;BME280;6334;48.696;2.114;2023-03-04T00:50:23;100890.37;;;3.45;67.95
12536;BME280;6334;48.696;2.114;2023-03-04T00:52:53;100894.50;;;3.48;68.28
12536;BME280;6334;48.696;2.114;2023-03-04T00:55:24;100895.53;;;3.13;68.87
12536;BME280;6334;48.696;2.114;2023-03-04T00:57:54;100894.72;;;3.31;69.00
12536;BME280;6334;48.696;2.114;2023-03-04T01:00:25;100888.52;;;3.46;68.39
12536;BME280;6334;48.696;2.114;2023-03-04T01:02:55;100892.88;;;3.07;69.31
12536;BME280;6334;48.696;2.114;2023-03-04T01:05:26;100897.63;;;3.43;67.93
12536;BME280;6334;48.696;2.114;2023-03-04T01:07:56;100893.92;;;3.34;68.11
12536;BME280;6334;48.696;2.114;2023-03-04T01:10:27;100891.34;;;3.30;68.42
12536;BME280;6334;48.696;2.114;2023-03-04T01:12:57;100891.95;;;3.37;67.37
12536;BME280;6334;48.696;2.114;2023-03-04T01:15:27;100890.28;;;3.10;68.76
12536;BME280;6334;48.696;2.114;2023-03-04T01:17:58;100890.61;;;3.05;69.11
12536;BME280;6334;48.696;2.114;2023-03-04T01:20:28;100892.77;;;2.80;69.61
12536;BME280;6334;48.696;2.114;2023-03-04T01:22:59;100893.80;;;2.77;70.14
12536;BME280;6334;48.696;2.114;2023-03-04T01:25:29;100892.70;;;3.22;68.51
12536;BME280;6334;48.696;2.114;2023-03-04T01:28:00;100888.25;;;3.08;69.14
12536;BME280;6334;48.696;2.114;2023-03-04T01:30:30;100887.73;;;3.23;68.69
12536;BME280;6334;48.696;2.114;2023-03-04T01:33:01;100882.00;;;3.11;69.15
12536;BME280;6334;48.696;2.114;2023-03-04T01:35:31;100880.70;;;3.14;68.53
12536;BME280;6334;48.696;2.114;2023-03-04T01:38:02;100875.80;;;3.13;68.69
12536;BME280;6334;48.696;2.114;2023-03-04T01:40:32;100879.62;;;3.00;69.23
12536;BME280;6334;48.696;2.114;2023-03-04T01:43:03;100878.19;;;3.26;68.68
12536;BME280;6334;48.696;2.114;2023-03-04T01:45:34;100871.94;;;2.74;69.96
12536;BME280;6334;48.696;2.114;2023-03-04T01:48:05;100874.76;;;2.95;69.12
12536;BME280;6334;48.696;2.114;2023-03-04T01:50:35;100872.47;;;3.21;68.47
12536;BME280;6334;48.696;2.114;2023-03-04T01:53:06;100866.38;;;3.03;68.93
12536;BME280;6334;48.696;2.114;2023-03-04T01:55:36;100866.84;;;3.13;68.62
12536;BME280;6334;48.696;2.114;2023-03-04T01:58:08;100861.30;;;3.01;69.24
12536;BME280;6334;48.696;2.114;2023-03-04T02:00:37;100849.98;;;2.84;69.33
12536;BME280;6334;48.696;2.114;2023-03-04T02:03:09;100859.88;;;2.87;69.94
12536;BME280;6334;48.696;2.114;2023-03-04T02:05:39;100856.88;;;2.86;69.22
12536;BME280;6334;48.696;2.114;2023-03-04T02:08:08;100855.02;;;2.75;69.54
12536;BME280;6334;48.696;2.114;2023-03-04T02:10:41;100853.88;;;2.90;69.26
12536;BME280;6334;48.696;2.114;2023-03-04T02:13:10;100852.98;;;2.87;69.41
12536;BME280;6334;48.696;2.114;2023-03-04T02:15:41;100850.80;;;2.86;69.63
12536;BME280;6334;48.696;2.114;2023-03-04T02:18:21;100853.28;;;2.72;69.72
12536;BME280;6334;48.696;2.114;2023-03-04T02:26:20;100849.06;;;2.71;69.97
12536;BME280;6334;48.696;2.114;2023-03-04T02:28:50;100845.61;;;2.59;70.63
12536;BME280;6334;48.696;2.114;2023-03-04T02:31:36;100842.31;;;2.58;70.24
12536;BME280;6334;48.696;2.114;2023-03-04T02:34:05;100845.09;;;2.67;70.34
12536;BME280;6334;48.696;2.114;2023-03-04T02:36:34;100846.97;;;2.67;70.54
12536;BME280;6334;48.696;2.114;2023-03-04T02:39:30;100844.34;;;2.82;69.36
12536;BME280;6334;48.696;2.114;2023-03-04T02:41:37;100848.36;;;2.47;70.61
12536;BME280;6334;48.696;2.114;2023-03-04T02:44:17;100846.73;;;2.60;70.01
12536;BME280;6334;48.696;2.114;2023-03-04T02:46:44;100839.98;;;2.55;70.91
12536;BME280;6334;48.696;2.114;2023-03-04T02:49:15;100851.81;;;2.45;71.42
12536;BME280;6334;48.696;2.114;2023-03-04T02:51:45;100839.29;;;2.66;70.42
12536;BME280;6334;48.696;2.114;2023-03-04T02:54:19;100839.70;;;2.39;71.07
12536;BME280;6334;48.696;2.114;2023-03-04T02:56:52;100838.10;;;2.21;71.67
12536;BME280;6334;48.696;2.114;2023-03-04T02:59:19;100834.45;;;2.34;71.62
12536;BME280;6334;48.696;2.114;2023-03-04T03:01:51;100837.71;;;2.36;71.33
12536;BME280;6334;48.696;2.114;2023-03-04T03:04:22;100824.23;;;2.42;71.34
12536;BME280;6334;48.696;2.114;2023-03-04T03:06:52;100823.10;;;2.55;70.96
12536;BME280;6334;48.696;2.114;2023-03-04T03:09:22;100819.69;;;2.40;71.03
12536;BME280;6334;48.696;2.114;2023-03-04T03:11:53;100820.44;;;2.27;71.31
12536;BME280;6334;48.696;2.114;2023-03-04T03:14:23;100809.95;;;2.21;71.14
12536;BME280;6334;48.696;2.114;2023-03-04T03:16:54;100817.03;;;2.17;71.87
12536;BME280;6334;48.696;2.114;2023-03-04T03:19:24;100819.95;;;2.12;71.93
12536;BME280;6334;48.696;2.114;2023-03-04T03:21:55;100813.09;;;2.07;72.15
12536;BME280;6334;48.696;2.114;2023-03-04T03:24:25;100814.26;;;2.06;71.76
12536;BME280;6334;48.696;2.114;2023-03-04T03:26:55;100812.39;;;2.31;71.31
12536;BME280;6334;48.696;2.114;2023-03-04T03:29:29;100816.42;;;2.11;72.31
12536;BME280;6334;48.696;2.114;2023-03-04T03:31:59;100816.84;;;2.09;72.22
12536;BME280;6334;48.696;2.114;2023-03-04T03:34:30;100822.03;;;1.98;72.81
12536;BME280;6334;48.696;2.114;2023-03-04T03:37:00;100801.77;;;1.91;72.64
12536;BME280;6334;48.696;2.114;2023-03-04T03:39:31;100823.17;;;1.88;72.73
12536;BME280;6334;48.696;2.114;2023-03-04T03:42:01;100805.14;;;1.97;72.44
12536;BME280;6334;48.696;2.114;2023-03-04T03:44:32;100829.30;;;1.95;72.62
12536;BME280;6334;48.696;2.114;2023-03-04T03:47:02;100825.48;;;2.14;71.64
12536;BME280;6334;48.696;2.114;2023-03-04T03:49:33;100828.20;;;2.05;72.45
12536;BME280;6334;48.696;2.114;2023-03-04T03:52:03;100829.77;;;1.94;72.85
12536;BME280;6334;48.696;2.114;2023-03-04T03:54:33;100826.08;;;2.03;72.83
12536;BME280;6334;48.696;2.114;2023-03-04T03:57:04;100827.83;;;1.95;73.54
12536;BME280;6334;48.696;2.114;2023-03-04T03:59:35;100825.55;;;2.02;72.32
12536;BME280;6334;48.696;2.114;2023-03-04T04:02:05;100803.86;;;1.86;72.56
12536;BME280;6334;48.696;2.114;2023-03-04T04:04:36;100824.67;;;2.08;72.53
12536;BME280;6334;48.696;2.114;2023-03-04T04:07:06;100826.33;;;2.16;71.88
12536;BME280;6334;48.696;2.114;2023-03-04T04:09:37;100833.50;;;2.09;72.07
12536;BME280;6334;48.696;2.114;2023-03-04T04:12:07;100834.67;;;2.07;72.06
12536;BME280;6334;48.696;2.114;2023-03-04T04:14:38;100832.89;;;1.94;72.35
12536;BME280;6334;48.696;2.114;2023-03-04T04:17:08;100833.95;;;2.03;71.63
12536;BME280;6334;48.696;2.114;2023-03-04T04:19:39;100836.76;;;2.06;71.45
12536;BME280;6334;48.696;2.114;2023-03-04T04:22:13;100841.05;;;2.11;71.38
12536;BME280;6334;48.696;2.114;2023-03-04T04:24:44;100837.65;;;2.31;70.44
12536;BME280;6334;48.696;2.114;2023-03-04T04:27:14;100840.31;;;2.18;70.42
12536;BME280;6334;48.696;2.114;2023-03-04T04:29:45;100839.92;;;2.19;70.45
12536;BME280;6334;48.696;2.114;2023-03-04T04:32:15;100843.61;;;2.26;69.89
12536;BME280;6334;48.696;2.114;2023-03-04T04:34:46;100832.36;;;2.26;70.18
12536;BME280;6334;48.696;2.114;2023-03-04T04:37:16;100842.66;;;2.12;70.29
12536;BME280;6334;48.696;2.114;2023-03-04T04:39:47;100842.63;;;2.26;70.10
12536;BME280;6334;48.696;2.114;2023-03-04T04:42:17;100839.71;;;2.20;70.80
12536;BME280;6334;48.696;2.114;2023-03-04T04:44:48;100840.64;;;2.00;71.75
12536;BME280;6334;48.696;2.114;2023-03-04T04:47:18;100850.70;;;2.03;71.45
12536;BME280;6334;48.696;2.114;2023-03-04T04:49:48;100853.56;;;1.85;72.12
12536;BME280;6334;48.696;2.114;2023-03-04T04:52:19;100850.11;;;1.96;71.67
12536;BME280;6334;48.696;2.114;2023-03-04T04:54:49;100853.56;;;2.15;71.46
12536;BME280;6334;48.696;2.114;2023-03-04T04:57:20;100855.38;;;2.03;71.65
12536;BME280;6334;48.696;2.114;2023-03-04T04:59:50;100861.34;;;1.89;72.06
12536;BME280;6334;48.696;2.114;2023-03-04T05:02:21;100863.39;;;2.25;70.37
12536;BME280;6334;48.696;2.114;2023-03-04T05:04:51;100871.47;;;1.94;70.94
12536;BME280;6334;48.696;2.114;2023-03-04T05:07:22;100873.00;;;2.07;70.93
12536;BME280;6334;48.696;2.114;2023-03-04T05:09:52;100873.50;;;2.05;70.85
12536;BME280;6334;48.696;2.114;2023-03-04T05:12:23;100872.98;;;2.00;71.34
12536;BME280;6334;48.696;2.114;2023-03-04T05:14:53;100877.65;;;2.20;70.44
12536;BME280;6334;48.696;2.114;2023-03-04T05:17:24;100877.96;;;2.01;70.98
12536;BME280;6334;48.696;2.114;2023-03-04T05:19:54;100884.58;;;1.96;71.57
12536;BME280;6334;48.696;2.114;2023-03-04T05:22:25;100886.91;;;1.90;71.65
12536;BME280;6334;48.696;2.114;2023-03-04T05:24:55;100884.55;;;1.80;71.46
12536;BME280;6334;48.696;2.114;2023-03-04T05:27:25;100883.20;;;1.57;72.79
12536;BME280;6334;48.696;2.114;2023-03-04T05:29:56;100882.18;;;1.89;71.80
12536;BME280;6334;48.696;2.114;2023-03-04T05:32:26;100885.70;;;1.86;71.47
12536;BME280;6334;48.696;2.114;2023-03-04T05:34:57;100885.26;;;1.92;70.83
12536;BME280;6334;48.696;2.114;2023-03-04T05:37:27;100886.50;;;1.93;71.05
12536;BME280;6334;48.696;2.114;2023-03-04T05:39:58;100882.88;;;1.92;71.39
12536;BME280;6334;48.696;2.114;2023-03-04T05:42:28;100872.95;;;1.86;71.62
12536;BME280;6334;48.696;2.114;2023-03-04T05:44:59;100879.97;;;1.71;71.88
12536;BME280;6334;48.696;2.114;2023-03-04T05:47:29;100883.61;;;1.81;71.58
12536;BME280;6334;48.696;2.114;2023-03-04T05:50:00;100883.55;;;2.04;70.43
12536;BME280;6334;48.696;2.114;2023-03-04T05:52:30;100892.88;;;1.80;71.22
12536;BME280;6334;48.696;2.114;2023-03-04T05:55:00;100881.42;;;1.69;71.04
12536;BME280;6334;48.696;2.114;2023-03-04T05:57:31;100893.51;;;1.63;71.48
12536;BME280;6334;48.696;2.114;2023-03-04T06:00:02;100895.91;;;1.57;72.18
12536;BME280;6334;48.696;2.114;2023-03-04T06:02:35;100897.48;;;1.70;71.80
12536;BME280;6334;48.696;2.114;2023-03-04T06:05:06;100896.28;;;1.73;71.66
12536;BME280;6334;48.696;2.114;2023-03-04T06:07:36;100897.92;;;1.60;72.38
12536;BME280;6334;48.696;2.114;2023-03-04T06:10:06;100896.70;;;1.50;72.30
12536;BME280;6334;48.696;2.114;2023-03-04T06:12:37;100895.34;;;1.74;71.36
12536;BME280;6334;48.696;2.114;2023-03-04T06:15:07;100899.97;;;1.88;71.04
12536;BME280;6334;48.696;2.114;2023-03-04T06:17:38;100896.26;;;1.71;70.69
12536;BME280;6334;48.696;2.114;2023-03-04T06:20:09;100897.39;;;1.44;72.19
12536;BME280;6334;48.696;2.114;2023-03-04T06:22:39;100897.83;;;1.22;73.04
12536;BME280;6334;48.696;2.114;2023-03-04T06:25:08;100902.47;;;1.70;71.47
12536;BME280;6334;48.696;2.114;2023-03-04T06:27:39;100890.17;;;1.78;70.74
12536;BME280;6334;48.696;2.114;2023-03-04T06:30:09;100906.11;;;1.77;71.09
12536;BME280;6334;48.696;2.114;2023-03-04T06:32:40;100903.14;;;1.40;72.11
12536;BME280;6334;48.696;2.114;2023-03-04T06:35:11;100904.70;;;1.58;71.30
12536;BME280;6334;48.696;2.114;2023-03-04T06:37:41;100912.78;;;1.71;71.11
12536;BME280;6334;48.696;2.114;2023-03-04T06:40:12;100918.70;;;1.69;71.19
12536;BME280;6334;48.696;2.114;2023-03-04T06:42:42;100920.86;;;1.81;70.49
12536;BME280;6334;48.696;2.114;2023-03-04T06:45:12;100920.63;;;1.79;70.83
12536;BME280;6334;48.696;2.114;2023-03-04T06:47:43;100923.52;;;1.60;70.55
12536;BME280;6334;48.696;2.114;2023-03-04T06:50:13;100927.58;;;1.81;70.82
12536;BME280;6334;48.696;2.114;2023-03-04T06:52:44;100921.52;;;1.94;69.78
12536;BME280;6334;48.696;2.114;2023-03-04T06:55:14;100930.77;;;1.72;71.00
12536;BME280;6334;48.696;2.114;2023-03-04T06:57:44;100934.48;;;1.83;70.61
12536;BME280;6334;48.696;2.114;2023-03-04T07:00:15;100937.02;;;1.10;73.33
12536;BME280;6334;48.696;2.114;2023-03-04T07:02:46;100931.67;;;1.70;71.23
12536;BME280;6334;48.696;2.114;2023-03-04T07:05:16;100936.23;;;1.48;72.16
12536;BME280;6334;48.696;2.114;2023-03-04T07:07:47;100932.59;;;1.70;71.05
12536;BME280;6334;48.696;2.114;2023-03-04T07:10:17;100936.64;;;1.73;71.05
12536;BME280;6334;48.696;2.114;2023-03-04T07:12:48;100939.79;;;1.55;72.10
12536;BME280;6334;48.696;2.114;2023-03-04T07:15:18;100944.41;;;1.53;72.48
12536;BME280;6334;48.696;2.114;2023-03-04T07:17:48;100946.53;;;1.53;72.49
12536;BME280;6334;48.696;2.114;2023-03-04T07:20:19;100927.44;;;1.54;72.24
12536;BME280;6334;48.696;2.114;2023-03-04T07:22:49;100929.05;;;1.57;72.20
12536;BME280;6334;48.696;2.114;2023-03-04T07:25:20;100946.34;;;1.72;72.10
12536;BME280;6334;48.696;2.114;2023-03-04T07:27:50;100950.33;;;1.67;72.29
12536;BME280;6334;48.696;2.114;2023-03-04T07:30:21;100946.67;;;1.97;71.11
12536;BME280;6334;48.696;2.114;2023-03-04T07:32:52;100949.14;;;2.08;70.78
12536;BME280;6334;48.696;2.114;2023-03-04T07:35:22;100950.44;;;1.86;71.90
12536;BME280;6334;48.696;2.114;2023-03-04T07:37:52;100954.51;;;2.10;70.81
12536;BME280;6334;48.696;2.114;2023-03-04T07:40:23;100955.18;;;2.28;70.31
12536;BME280;6334;48.696;2.114;2023-03-04T07:42:55;100957.43;;;1.98;71.01
12536;BME280;6334;48.696;2.114;2023-03-04T07:45:25;100952.39;;;2.19;70.30
12536;BME280;6334;48.696;2.114;2023-03-04T07:47:58;100967.50;;;2.23;70.67
12536;BME280;6334;48.696;2.114;2023-03-04T07:50:26;100964.92;;;2.32;70.08
12536;BME280;6334;48.696;2.114;2023-03-04T07:52:56;100972.52;;;2.38;69.85
12536;BME280;6334;48.696;2.114;2023-03-04T07:55:27;100970.22;;;2.49;69.41
12536;BME280;6334;48.696;2.114;2023-03-04T07:57:58;100964.06;;;2.40;69.41
12536;BME280;6334;48.696;2.114;2023-03-04T08:00:29;100975.85;;;2.30;70.34
12536;BME280;6334;48.696;2.114;2023-03-04T08:03:00;100976.91;;;2.41;69.81
12536;BME280;6334;48.696;2.114;2023-03-04T08:05:30;100978.42;;;2.58;69.44
12536;BME280;6334;48.696;2.114;2023-03-04T08:08:01;100980.81;;;2.49;69.78
12536;BME280;6334;48.696;2.114;2023-03-04T08:10:32;100979.72;;;2.50;69.89
12536;BME280;6334;48.696;2.114;2023-03-04T08:13:03;100979.17;;;2.58;69.56
12536;BME280;6334;48.696;2.114;2023-03-04T08:15:33;100978.69;;;2.56;69.85
12536;BME280;6334;48.696;2.114;2023-03-04T08:18:04;100980.31;;;2.70;69.25
12536;BME280;6334;48.696;2.114;2023-03-04T08:20:34;100985.59;;;2.56;69.67
12536;BME280;6334;48.696;2.114;2023-03-04T08:23:04;100983.83;;;2.81;69.51
12536;BME280;6334;48.696;2.114;2023-03-04T08:25:44;100987.90;;;2.66;70.32
12536;BME280;6334;48.696;2.114;2023-03-04T08:28:06;100982.46;;;2.65;70.60
12536;BME280;6334;48.696;2.114;2023-03-04T08:30:36;100977.71;;;2.92;69.26
12536;BME280;6334;48.696;2.114;2023-03-04T08:33:07;100967.50;;;3.01;69.42
12536;BME280;6334;48.696;2.114;2023-03-04T08:35:37;100994.34;;;3.30;68.96
12536;BME280;6334;48.696;2.114;2023-03-04T08:38:07;100994.67;;;3.15;69.70
12536;BME280;6334;48.696;2.114;2023-03-04T08:40:38;101001.65;;;3.29;69.08
12536;BME280;6334;48.696;2.114;2023-03-04T08:43:08;101000.44;;;3.27;68.58
12536;BME280;6334;48.696;2.114;2023-03-04T08:45:39;101002.05;;;3.14;69.99
12536;BME280;6334;48.696;2.114;2023-03-04T08:48:09;101001.19;;;3.35;69.21
12536;BME280;6334;48.696;2.114;2023-03-04T08:50:40;101011.77;;;3.45;67.83
12536;BME280;6334;48.696;2.114;2023-03-04T08:53:10;101009.04;;;3.47;68.46
12536;BME280;6334;48.696;2.114;2023-03-04T08:55:40;101003.79;;;3.36;68.54
12536;BME280;6334;48.696;2.114;2023-03-04T08:58:11;101007.94;;;3.56;67.61
12536;BME280;6334;48.696;2.114;2023-03-04T09:00:42;101009.52;;;3.53;67.22
12536;BME280;6334;48.696;2.114;2023-03-04T09:03:12;101015.00;;;3.71;68.12
12536;BME280;6334;48.696;2.114;2023-03-04T09:05:43;101015.39;;;3.73;68.16
12536;BME280;6334;48.696;2.114;2023-03-04T09:08:13;101015.69;;;3.74;68.05
12536;BME280;6334;48.696;2.114;2023-03-04T09:10:43;101014.36;;;3.68;68.22
12536;BME280;6334;48.696;2.114;2023-03-04T09:13:14;101000.89;;;3.67;66.83
12536;BME280;6334;48.696;2.114;2023-03-04T09:15:45;101019.83;;;3.86;67.02
12536;BME280;6334;48.696;2.114;2023-03-04T09:18:15;101020.91;;;3.97;67.60
12536;BME280;6334;48.696;2.114;2023-03-04T09:20:45;101016.84;;;4.07;67.02
12536;BME280;6334;48.696;2.114;2023-03-04T09:23:16;101017.48;;;3.90;67.70
12536;BME280;6334;48.696;2.114;2023-03-04T09:25:46;101018.14;;;4.06;67.27
12536;BME280;6334;48.696;2.114;2023-03-04T09:28:17;101023.98;;;4.14;66.84
12536;BME280;6334;48.696;2.114;2023-03-04T09:30:47;101025.27;;;4.32;66.28
12536;BME280;6334;48.696;2.114;2023-03-04T09:33:17;101024.02;;;3.98;67.09
12536;BME280;6334;48.696;2.114;2023-03-04T09:35:48;101028.38;;;4.24;64.92
12536;BME280;6334;48.696;2.114;2023-03-04T09:38:18;101024.79;;;4.33;65.44
12536;BME280;6334;48.696;2.114;2023-03-04T09:40:49;101031.25;;;4.28;66.03
12536;BME280;6334;48.696;2.114;2023-03-04T09:43:24;101027.96;;;4.34;65.18
12536;BME280;6334;48.696;2.114;2023-03-04T09:46:02;101024.01;;;4.18;65.70
12536;BME280;6334;48.696;2.114;2023-03-04T09:48:29;101020.52;;;4.30;65.10
12536;BME280;6334;48.696;2.114;2023-03-04T09:56:32;101003.95;;;4.13;66.08
12536;BME280;6334;48.696;2.114;2023-03-04T10:04:35;101025.94;;;4.39;65.17
12536;BME280;6334;48.696;2.114;2023-03-04T10:07:03;101027.75;;;4.39;64.83
12536;BME280;6334;48.696;2.114;2023-03-04T10:09:47;101014.27;;;4.19;65.15
12536;BME280;6334;48.696;2.114;2023-03-04T10:12:10;101029.70;;;4.23;64.43
12536;BME280;6334;48.696;2.114;2023-03-04T10:14:47;101022.83;;;4.30;64.85
12536;BME280;6334;48.696;2.114;2023-03-04T10:17:15;101020.75;;;4.33;64.26
12536;BME280;6334;48.696;2.114;2023-03-04T10:19:57;101020.28;;;4.48;64.22
12536;BME280;6334;48.696;2.114;2023-03-04T10:22:46;101017.58;;;4.45;63.56
12536;BME280;6334;48.696;2.114;2023-03-04T10:25:23;101024.50;;;4.58;63.46
12536;BME280;6334;48.696;2.114;2023-03-04T10:27:53;101020.13;;;4.65;63.19
12536;BME280;6334;48.696;2.114;2023-03-04T10:30:35;101018.02;;;4.58;63.82
12536;BME280;6334;48.696;2.114;2023-03-04T10:33:00;101017.17;;;4.60;63.42
12536;BME280;6334;48.696;2.114;2023-03-04T10:35:32;101013.06;;;4.55;62.89
12536;BME280;6334;48.696;2.114;2023-03-04T10:38:01;101009.73;;;4.54;62.53
12536;BME280;6334;48.696;2.114;2023-03-04T10:40:35;101000.98;;;4.68;62.75
12536;BME280;6334;48.696;2.114;2023-03-04T10:43:02;101002.57;;;4.57;63.82
12536;BME280;6334;48.696;2.114;2023-03-04T10:45:36;101003.55;;;4.77;63.69
12536;BME280;6334;48.696;2.114;2023-03-04T10:48:03;101002.84;;;4.69;64.02
12536;BME280;6334;48.696;2.114;2023-03-04T10:50:33;100997.38;;;4.72;63.33
12536;BME280;6334;48.696;2.114;2023-03-04T10:53:04;100995.03;;;4.71;63.19
12536;BME280;6334;48.696;2.114;2023-03-04T10:55:43;100986.80;;;4.59;62.58
12536;BME280;6334;48.696;2.114;2023-03-04T10:58:14;100987.02;;;4.76;62.80
12536;BME280;6334;48.696;2.114;2023-03-04T11:00:44;100983.86;;;5.00;63.03
12536;BME280;6334;48.696;2.114;2023-03-04T11:03:27;100986.15;;;4.93;61.94
12536;BME280;6334;48.696;2.114;2023-03-04T11:05:51;100989.27;;;4.83;63.24
12536;BME280;6334;48.696;2.114;2023-03-04T11:08:21;100986.59;;;4.82;62.18
12536;BME280;6334;48.696;2.114;2023-03-04T11:10:51;100983.63;;;4.91;62.54
12536;BME280;6334;48.696;2.114;2023-03-04T11:13:23;100979.20;;;4.99;63.15
12536;BME280;6334;48.696;2.114;2023-03-04T11:15:53;100982.33;;;4.80;62.63
12536;BME280;6334;48.696;2.114;2023-03-04T11:20:59;100971.41;;;4.90;62.75
12536;BME280;6334;48.696;2.114;2023-03-04T11:23:42;100968.56;;;4.99;62.82
12536;BME280;6334;48.696;2.114;2023-03-04T11:26:22;100969.45;;;4.86;63.50
12536;BME280;6334;48.696;2.114;2023-03-04T11:31:38;100961.11;;;4.91;62.20
12536;BME280;6334;48.696;2.114;2023-03-04T11:36:56;100955.55;;;5.16;61.42
12536;BME280;6334;48.696;2.114;2023-03-04T11:39:28;100952.35;;;5.12;62.75
12536;BME280;6334;48.696;2.114;2023-03-04T11:41:59;100949.55;;;5.10;62.56
12536;BME280;6334;48.696;2.114;2023-03-04T11:44:28;100949.91;;;5.08;62.24
12536;BME280;6334;48.696;2.114;2023-03-04T11:52:56;100943.20;;;5.10;62.76
12536;BME280;6334;48.696;2.114;2023-03-04T11:55:58;100944.25;;;5.16;62.82
12536;BME280;6334;48.696;2.114;2023-03-04T11:58:56;100944.19;;;5.13;62.84
12536;BME280;6334;48.696;2.114;2023-03-04T12:01:28;100938.55;;;5.33;62.26
12536;BME280;6334;48.696;2.114;2023-03-04T12:09:39;100929.41;;;5.20;62.41
12536;BME280;6334;48.696;2.114;2023-03-04T12:12:30;100924.23;;;5.34;61.55
12536;BME280;6334;48.696;2.114;2023-03-04T12:15:07;100930.73;;;5.20;62.10
12536;BME280;6334;48.696;2.114;2023-03-04T12:17:58;100918.88;;;5.20;62.26
12536;BME280;6334;48.696;2.114;2023-03-04T12:20:26;100919.59;;;5.22;62.13
12536;BME280;6334;48.696;2.114;2023-03-04T12:23:02;100909.36;;;5.16;61.38
12536;BME280;6334;48.696;2.114;2023-03-04T12:25:37;100908.02;;;5.29;62.21
12536;BME280;6334;48.696;2.114;2023-03-04T12:28:18;100902.13;;;5.38;61.43
12536;BME280;6334;48.696;2.114;2023-03-04T12:33:53;100902.58;;;5.35;62.13
12536;BME280;6334;48.696;2.114;2023-03-04T12:44:47;100903.94;;;5.34;61.83
12536;BME280;6334;48.696;2.114;2023-03-04T12:50:17;100896.70;;;5.28;61.69
12536;BME280;6334;48.696;2.114;2023-03-04T12:55:39;100889.39;;;5.55;61.71
12536;BME280;6334;48.696;2.114;2023-03-04T12:58:15;100891.95;;;5.52;60.56
12536;BME280;6334;48.696;2.114;2023-03-04T13:00:51;100890.03;;;5.32;60.51
12536;BME280;6334;48.696;2.114;2023-03-04T13:03:25;100890.25;;;5.56;60.35
12536;BME280;6334;48.696;2.114;2023-03-04T13:09:19;100885.34;;;5.70;59.65
12536;BME280;6334;48.696;2.114;2023-03-04T13:14:05;100873.95;;;5.65;60.28
12536;BME280;6334;48.696;2.114;2023-03-04T13:19:03;100869.44;;;5.75;59.92
12536;BME280;6334;48.696;2.114;2023-03-04T13:21:33;100866.76;;;5.73;60.36
12536;BME280;6334;48.696;2.114;2023-03-04T13:24:41;100867.95;;;5.67;61.36
12536;BME280;6334;48.696;2.114;2023-03-04T13:26:34;100862.43;;;5.68;60.68
12536;BME280;6334;48.696;2.114;2023-03-04T13:31:58;100856.09;;;5.50;60.80
12536;BME280;6334;48.696;2.114;2023-03-04T13:34:46;100856.49;;;5.53;60.98
12536;BME280;6334;48.696;2.114;2023-03-04T13:37:34;100858.34;;;5.66;60.88
12536;BME280;6334;48.696;2.114;2023-03-04T13:42:51;100850.68;;;5.52;60.84
12536;BME280;6334;48.696;2.114;2023-03-04T13:45:31;100846.67;;;5.60;60.31
12536;BME280;6334;48.696;2.114;2023-03-04T13:48:01;100842.88;;;5.53;61.53
12536;BME280;6334;48.696;2.114;2023-03-04T13:50:37;100845.55;;;5.74;60.41
12536;BME280;6334;48.696;2.114;2023-03-04T13:58:38;100846.07;;;5.75;59.98
12536;BME280;6334;48.696;2.114;2023-03-04T14:01:27;100839.78;;;5.63;60.07
12536;BME280;6334;48.696;2.114;2023-03-04T14:03:57;100836.34;;;5.64;60.62
12536;BME280;6334;48.696;2.114;2023-03-04T14:06:28;100841.85;;;5.83;60.85
12536;BME280;6334;48.696;2.114;2023-03-04T14:08:57;100834.48;;;5.69;61.34
12536;BME280;6334;48.696;2.114;2023-03-04T14:13:58;100830.65;;;5.64;60.97
12536;BME280;6334;48.696;2.114;2023-03-04T14:16:28;100829.58;;;5.69;61.42
12536;BME280;6334;48.696;2.114;2023-03-04T14:19:03;100825.50;;;5.59;61.10
12536;BME280;6334;48.696;2.114;2023-03-04T14:21:32;100823.37;;;5.68;61.45
12536;BME280;6334;48.696;2.114;2023-03-04T14:24:05;100817.12;;;5.60;61.17
12536;BME280;6334;48.696;2.114;2023-03-04T14:26:33;100818.27;;;5.64;61.51
12536;BME280;6334;48.696;2.114;2023-03-04T14:29:23;100823.42;;;5.69;61.43
12536;BME280;6334;48.696;2.114;2023-03-04T14:31:52;100813.68;;;5.65;62.05
12536;BME280;6334;48.696;2.114;2023-03-04T14:34:25;100791.53;;;5.60;61.99
12536;BME280;6334;48.696;2.114;2023-03-04T14:36:54;100809.34;;;5.76;60.95
12536;BME280;6334;48.696;2.114;2023-03-04T14:39:26;100806.03;;;5.72;61.26
12536;BME280;6334;48.696;2.114;2023-03-04T14:41:56;100805.05;;;5.89;61.21
12536;BME280;6334;48.696;2.114;2023-03-04T14:44:29;100806.84;;;5.63;61.45
12536;BME280;6334;48.696;2.114;2023-03-04T14:47:00;100799.95;;;5.81;61.44